CYAZ

Tofino/Long Beach Airport

Tofino, British Columbia, Canada

CYAZ 191500Z 36002KT 15SM FEW005 FEW025TCU BKN057 09/09 A2972 RMK CF1TCU1SC5 CF TR TCU OFSHR SLP065

Observed Flight Rules
Sep-19 @ 15:00 UTC (27 minutes ago)
 
Visual Flight Rules
Wind Visibility Clouds
360° at 2 knots 15 miles
  • Few at 500' AGL
  • Few at 2,500' AGL
  • Broken at 5,700' AGL
Temperatures Readings
Current 9°C / 48°F
Dewpoint 9°C / 48°F
Humidity 100%
Altimeter 29.72" Hg
Pressure 1006.5 hPa
Elevation 24
Observed Flight Rules
Sep-19 @ 15:00 UTC
(27 minutes ago)
 
VFR
Wind Visibility
360° at 2 knots 15 miles
Clouds
  • Few at 500' AGL
  • Few at 2,500' AGL
  • Broken at 5,700' AGL
Temperature Dewpoint
9°C / 48°F 9°C / 48°F
Humidity Altimeter Pressure
100% 29.72" Hg 1006.5 hPa